sensor_id;sensor_type;location;lat;lon;timestamp;P1;durP1;ratioP1;P2;durP2;ratioP2
48554;SDS011;34336;48.270;16.716;2022-08-25T00:01:34;33.45;;;24.75;;
48554;SDS011;34336;48.270;16.716;2022-08-25T00:04:05;34.75;;;25.15;;
48554;SDS011;34336;48.270;16.716;2022-08-25T00:09:04;36.55;;;22.75;;
48554;SDS011;34336;48.270;16.716;2022-08-25T00:11:32;38.35;;;24.92;;
48554;SDS011;34336;48.270;16.716;2022-08-25T00:14:03;35.72;;;25.10;;
48554;SDS011;34336;48.270;16.716;2022-08-25T00:16:32;38.40;;;25.13;;
48554;SDS011;34336;48.270;16.716;2022-08-25T00:19:01;36.58;;;25.13;;
48554;SDS011;34336;48.270;16.716;2022-08-25T00:21:31;34.22;;;24.98;;
48554;SDS011;34336;48.270;16.716;2022-08-25T00:23:58;35.53;;;25.63;;
48554;SDS011;34336;48.270;16.716;2022-08-25T00:26:28;40.15;;;26.20;;
48554;SDS011;34336;48.270;16.716;2022-08-25T00:28:55;38.95;;;27.92;;
48554;SDS011;34336;48.270;16.716;2022-08-25T00:31:27;38.90;;;26.08;;
48554;SDS011;34336;48.270;16.716;2022-08-25T00:34:05;39.95;;;27.77;;
48554;SDS011;34336;48.270;16.716;2022-08-25T00:36:35;39.30;;;26.60;;
48554;SDS011;34336;48.270;16.716;2022-08-25T00:39:03;39.55;;;27.00;;
48554;SDS011;34336;48.270;16.716;2022-08-25T00:41:31;37.28;;;27.17;;
48554;SDS011;34336;48.270;16.716;2022-08-25T00:44:01;40.33;;;26.90;;
48554;SDS011;34336;48.270;16.716;2022-08-25T00:46:33;36.92;;;26.98;;
48554;SDS011;34336;48.270;16.716;2022-08-25T00:49:07;33.42;;;25.92;;
48554;SDS011;34336;48.270;16.716;2022-08-25T00:52:33;36.88;;;25.65;;
48554;SDS011;34336;48.270;16.716;2022-08-25T00:54:58;37.67;;;26.55;;
48554;SDS011;34336;48.270;16.716;2022-08-25T00:57:37;39.42;;;25.55;;
48554;SDS011;34336;48.270;16.716;2022-08-25T01:00:14;35.33;;;26.15;;
48554;SDS011;34336;48.270;16.716;2022-08-25T01:02:44;32.13;;;25.08;;
48554;SDS011;34336;48.270;16.716;2022-08-25T01:05:12;35.53;;;24.40;;
48554;SDS011;34336;48.270;16.716;2022-08-25T01:07:40;38.47;;;25.88;;
48554;SDS011;34336;48.270;16.716;2022-08-25T01:10:10;33.60;;;23.98;;
48554;SDS011;34336;48.270;16.716;2022-08-25T01:12:38;33.00;;;24.55;;
48554;SDS011;34336;48.270;16.716;2022-08-25T01:15:07;36.35;;;25.10;;
48554;SDS011;34336;48.270;16.716;2022-08-25T01:20:11;30.52;;;25.38;;
48554;SDS011;34336;48.270;16.716;2022-08-25T01:22:40;34.35;;;24.48;;
48554;SDS011;34336;48.270;16.716;2022-08-25T01:25:16;35.75;;;24.40;;
48554;SDS011;34336;48.270;16.716;2022-08-25T01:28:04;35.30;;;23.77;;
48554;SDS011;34336;48.270;16.716;2022-08-25T01:30:31;34.97;;;23.80;;
48554;SDS011;34336;48.270;16.716;2022-08-25T01:33:01;32.45;;;24.05;;
48554;SDS011;34336;48.270;16.716;2022-08-25T01:35:30;29.23;;;21.95;;
48554;SDS011;34336;48.270;16.716;2022-08-25T01:37:59;27.40;;;22.65;;
48554;SDS011;34336;48.270;16.716;2022-08-25T01:40:26;28.35;;;21.25;;
48554;SDS011;34336;48.270;16.716;2022-08-25T01:45:33;34.97;;;25.15;;
48554;SDS011;34336;48.270;16.716;2022-08-25T01:48:00;32.22;;;23.98;;
48554;SDS011;34336;48.270;16.716;2022-08-25T01:50:28;28.45;;;22.42;;
48554;SDS011;34336;48.270;16.716;2022-08-25T01:55:25;33.00;;;23.65;;
48554;SDS011;34336;48.270;16.716;2022-08-25T01:57:52;31.58;;;23.55;;
48554;SDS011;34336;48.270;16.716;2022-08-25T02:00:19;30.45;;;23.42;;
48554;SDS011;34336;48.270;16.716;2022-08-25T02:02:47;34.75;;;24.20;;
48554;SDS011;34336;48.270;16.716;2022-08-25T02:05:19;36.65;;;25.38;;
48554;SDS011;34336;48.270;16.716;2022-08-25T02:07:49;36.78;;;26.15;;
48554;SDS011;34336;48.270;16.716;2022-08-25T02:10:15;36.50;;;25.83;;
48554;SDS011;34336;48.270;16.716;2022-08-25T02:12:42;34.28;;;25.67;;
48554;SDS011;34336;48.270;16.716;2022-08-25T02:15:09;32.20;;;25.35;;
48554;SDS011;34336;48.270;16.716;2022-08-25T02:17:36;37.17;;;25.75;;
48554;SDS011;34336;48.270;16.716;2022-08-25T02:20:05;33.45;;;25.35;;
48554;SDS011;34336;48.270;16.716;2022-08-25T02:22:33;28.65;;;22.75;;
48554;SDS011;34336;48.270;16.716;2022-08-25T02:25:00;33.20;;;23.20;;
48554;SDS011;34336;48.270;16.716;2022-08-25T02:27:27;34.13;;;24.60;;
48554;SDS011;34336;48.270;16.716;2022-08-25T02:29:54;34.15;;;26.05;;
48554;SDS011;34336;48.270;16.716;2022-08-25T02:32:21;29.88;;;23.33;;
48554;SDS011;34336;48.270;16.716;2022-08-25T02:34:48;30.58;;;22.48;;
48554;SDS011;34336;48.270;16.716;2022-08-25T02:37:15;27.27;;;20.23;;
48554;SDS011;34336;48.270;16.716;2022-08-25T02:39:42;27.73;;;21.38;;
48554;SDS011;34336;48.270;16.716;2022-08-25T02:42:08;26.88;;;21.77;;
48554;SDS011;34336;48.270;16.716;2022-08-25T02:44:35;30.85;;;22.55;;
48554;SDS011;34336;48.270;16.716;2022-08-25T02:47:02;29.40;;;21.95;;
48554;SDS011;34336;48.270;16.716;2022-08-25T02:49:29;30.67;;;21.83;;
48554;SDS011;34336;48.270;16.716;2022-08-25T02:51:57;30.38;;;22.92;;
48554;SDS011;34336;48.270;16.716;2022-08-25T02:54:26;26.60;;;20.80;;
48554;SDS011;34336;48.270;16.716;2022-08-25T02:56:53;30.38;;;22.48;;
48554;SDS011;34336;48.270;16.716;2022-08-25T02:59:20;33.95;;;23.98;;
48554;SDS011;34336;48.270;16.716;2022-08-25T03:01:47;30.40;;;22.65;;
48554;SDS011;34336;48.270;16.716;2022-08-25T03:04:14;32.50;;;24.08;;
48554;SDS011;34336;48.270;16.716;2022-08-25T03:06:41;33.60;;;25.50;;
48554;SDS011;34336;48.270;16.716;2022-08-25T03:09:08;33.45;;;24.98;;
48554;SDS011;34336;48.270;16.716;2022-08-25T03:11:35;32.25;;;25.48;;
48554;SDS011;34336;48.270;16.716;2022-08-25T03:14:06;34.97;;;24.20;;
48554;SDS011;34336;48.270;16.716;2022-08-25T03:16:35;33.45;;;25.63;;
48554;SDS011;34336;48.270;16.716;2022-08-25T03:19:02;28.75;;;24.15;;
48554;SDS011;34336;48.270;16.716;2022-08-25T03:21:30;33.50;;;25.17;;
48554;SDS011;34336;48.270;16.716;2022-08-25T03:23:58;34.40;;;24.27;;
48554;SDS011;34336;48.270;16.716;2022-08-25T03:26:26;30.15;;;23.40;;
48554;SDS011;34336;48.270;16.716;2022-08-25T03:29:11;27.60;;;22.10;;
48554;SDS011;34336;48.270;16.716;2022-08-25T03:31:39;30.63;;;23.30;;
48554;SDS011;34336;48.270;16.716;2022-08-25T03:34:06;31.08;;;24.35;;
48554;SDS011;34336;48.270;16.716;2022-08-25T03:36:33;33.28;;;25.45;;
48554;SDS011;34336;48.270;16.716;2022-08-25T03:38:59;32.97;;;23.67;;
48554;SDS011;34336;48.270;16.716;2022-08-25T03:41:27;30.40;;;24.48;;
48554;SDS011;34336;48.270;16.716;2022-08-25T03:43:55;34.85;;;24.25;;
48554;SDS011;34336;48.270;16.716;2022-08-25T03:46:24;31.55;;;23.88;;
48554;SDS011;34336;48.270;16.716;2022-08-25T03:48:55;27.58;;;22.40;;
48554;SDS011;34336;48.270;16.716;2022-08-25T03:51:25;28.13;;;22.27;;
48554;SDS011;34336;48.270;16.716;2022-08-25T03:53:54;29.73;;;23.67;;
48554;SDS011;34336;48.270;16.716;2022-08-25T03:56:22;29.40;;;23.55;;
48554;SDS011;34336;48.270;16.716;2022-08-25T03:58:49;28.25;;;23.13;;
48554;SDS011;34336;48.270;16.716;2022-08-25T04:01:16;33.85;;;25.00;;
48554;SDS011;34336;48.270;16.716;2022-08-25T04:03:44;35.70;;;25.05;;
48554;SDS011;34336;48.270;16.716;2022-08-25T04:06:11;33.35;;;25.23;;
48554;SDS011;34336;48.270;16.716;2022-08-25T04:08:39;31.77;;;25.35;;
48554;SDS011;34336;48.270;16.716;2022-08-25T04:11:06;31.33;;;23.65;;
48554;SDS011;34336;48.270;16.716;2022-08-25T04:13:35;31.02;;;24.00;;
48554;SDS011;34336;48.270;16.716;2022-08-25T04:16:03;34.50;;;25.08;;
48554;SDS011;34336;48.270;16.716;2022-08-25T04:18:36;33.63;;;24.10;;
48554;SDS011;34336;48.270;16.716;2022-08-25T04:21:04;33.80;;;22.80;;
48554;SDS011;34336;48.270;16.716;2022-08-25T04:23:32;28.48;;;22.52;;
48554;SDS011;34336;48.270;16.716;2022-08-25T04:25:59;33.15;;;23.73;;
48554;SDS011;34336;48.270;16.716;2022-08-25T04:28:27;29.88;;;23.35;;
48554;SDS011;34336;48.270;16.716;2022-08-25T04:30:54;33.25;;;23.25;;
48554;SDS011;34336;48.270;16.716;2022-08-25T04:33:21;31.83;;;24.80;;
48554;SDS011;34336;48.270;16.716;2022-08-25T04:35:48;32.30;;;24.15;;
48554;SDS011;34336;48.270;16.716;2022-08-25T04:38:15;29.50;;;23.50;;
48554;SDS011;34336;48.270;16.716;2022-08-25T04:40:42;27.98;;;21.92;;
48554;SDS011;34336;48.270;16.716;2022-08-25T04:43:09;26.67;;;20.95;;
48554;SDS011;34336;48.270;16.716;2022-08-25T04:45:37;27.30;;;22.02;;
48554;SDS011;34336;48.270;16.716;2022-08-25T04:48:05;24.15;;;19.73;;
48554;SDS011;34336;48.270;16.716;2022-08-25T04:50:32;23.67;;;18.85;;
48554;SDS011;34336;48.270;16.716;2022-08-25T04:52:59;23.80;;;19.05;;
48554;SDS011;34336;48.270;16.716;2022-08-25T04:55:26;22.45;;;17.55;;
48554;SDS011;34336;48.270;16.716;2022-08-25T04:57:53;20.98;;;17.30;;
48554;SDS011;34336;48.270;16.716;2022-08-25T05:00:20;19.52;;;16.55;;
48554;SDS011;34336;48.270;16.716;2022-08-25T05:02:47;21.73;;;17.83;;
48554;SDS011;34336;48.270;16.716;2022-08-25T05:05:14;26.90;;;17.70;;
48554;SDS011;34336;48.270;16.716;2022-08-25T05:07:41;21.75;;;17.02;;
48554;SDS011;34336;48.270;16.716;2022-08-25T05:10:08;27.58;;;19.10;;
48554;SDS011;34336;48.270;16.716;2022-08-25T05:12:35;23.15;;;17.65;;
48554;SDS011;34336;48.270;16.716;2022-08-25T05:15:02;26.83;;;18.10;;
48554;SDS011;34336;48.270;16.716;2022-08-25T05:17:49;25.95;;;18.40;;
48554;SDS011;34336;48.270;16.716;2022-08-25T05:20:21;23.95;;;17.90;;
48554;SDS011;34336;48.270;16.716;2022-08-25T05:22:49;27.15;;;20.00;;
48554;SDS011;34336;48.270;16.716;2022-08-25T05:25:16;26.05;;;20.73;;
48554;SDS011;34336;48.270;16.716;2022-08-25T05:27:43;25.20;;;19.52;;
48554;SDS011;34336;48.270;16.716;2022-08-25T05:30:11;26.50;;;20.00;;
48554;SDS011;34336;48.270;16.716;2022-08-25T05:32:38;24.40;;;18.52;;
48554;SDS011;34336;48.270;16.716;2022-08-25T05:35:05;24.02;;;18.52;;
48554;SDS011;34336;48.270;16.716;2022-08-25T05:37:32;23.55;;;18.40;;
48554;SDS011;34336;48.270;16.716;2022-08-25T05:39:59;23.45;;;17.98;;
48554;SDS011;34336;48.270;16.716;2022-08-25T05:42:26;30.50;;;18.65;;
48554;SDS011;34336;48.270;16.716;2022-08-25T05:44:54;23.92;;;17.83;;
48554;SDS011;34336;48.270;16.716;2022-08-25T05:47:21;20.40;;;18.17;;
48554;SDS011;34336;48.270;16.716;2022-08-25T05:49:47;24.77;;;18.02;;
48554;SDS011;34336;48.270;16.716;2022-08-25T05:52:14;24.38;;;17.52;;
48554;SDS011;34336;48.270;16.716;2022-08-25T05:54:45;21.45;;;17.60;;
48554;SDS011;34336;48.270;16.716;2022-08-25T05:57:12;21.05;;;16.50;;
48554;SDS011;34336;48.270;16.716;2022-08-25T05:59:39;23.40;;;17.35;;
48554;SDS011;34336;48.270;16.716;2022-08-25T06:02:06;25.67;;;18.48;;
48554;SDS011;34336;48.270;16.716;2022-08-25T06:04:52;23.67;;;18.83;;
48554;SDS011;34336;48.270;16.716;2022-08-25T06:07:18;22.77;;;19.23;;
48554;SDS011;34336;48.270;16.716;2022-08-25T06:09:46;22.50;;;17.77;;
48554;SDS011;34336;48.270;16.716;2022-08-25T06:12:15;27.55;;;17.77;;
48554;SDS011;34336;48.270;16.716;2022-08-25T06:14:43;22.33;;;17.52;;
48554;SDS011;34336;48.270;16.716;2022-08-25T06:17:10;18.98;;;15.55;;
48554;SDS011;34336;48.270;16.716;2022-08-25T06:19:37;20.92;;;16.83;;
48554;SDS011;34336;48.270;16.716;2022-08-25T06:22:06;20.73;;;16.40;;
48554;SDS011;34336;48.270;16.716;2022-08-25T06:24:33;23.25;;;18.40;;
48554;SDS011;34336;48.270;16.716;2022-08-25T06:27:00;26.75;;;18.77;;
48554;SDS011;34336;48.270;16.716;2022-08-25T06:29:27;21.55;;;17.40;;
48554;SDS011;34336;48.270;16.716;2022-08-25T06:31:54;22.77;;;17.60;;
48554;SDS011;34336;48.270;16.716;2022-08-25T06:34:21;23.60;;;17.98;;
48554;SDS011;34336;48.270;16.716;2022-08-25T06:36:49;22.70;;;16.20;;
48554;SDS011;34336;48.270;16.716;2022-08-25T06:39:16;17.88;;;15.43;;
48554;SDS011;34336;48.270;16.716;2022-08-25T06:41:43;22.60;;;17.13;;
48554;SDS011;34336;48.270;16.716;2022-08-25T06:44:10;21.10;;;16.25;;
48554;SDS011;34336;48.270;16.716;2022-08-25T06:46:38;24.60;;;17.25;;
48554;SDS011;34336;48.270;16.716;2022-08-25T06:49:05;23.92;;;16.73;;
48554;SDS011;34336;48.270;16.716;2022-08-25T06:51:32;33.05;;;26.58;;
48554;SDS011;34336;48.270;16.716;2022-08-25T06:54:02;23.67;;;17.45;;
48554;SDS011;34336;48.270;16.716;2022-08-25T06:56:30;21.48;;;16.52;;
48554;SDS011;34336;48.270;16.716;2022-08-25T06:58:57;25.13;;;16.77;;
48554;SDS011;34336;48.270;16.716;2022-08-25T07:01:26;23.98;;;15.88;;
48554;SDS011;34336;48.270;16.716;2022-08-25T07:03:57;19.02;;;14.23;;
48554;SDS011;34336;48.270;16.716;2022-08-25T07:06:25;19.05;;;13.88;;
48554;SDS011;34336;48.270;16.716;2022-08-25T07:08:54;19.52;;;13.40;;
48554;SDS011;34336;48.270;16.716;2022-08-25T07:11:21;20.42;;;11.00;;
48554;SDS011;34336;48.270;16.716;2022-08-25T07:13:48;18.15;;;11.60;;
48554;SDS011;34336;48.270;16.716;2022-08-25T07:16:16;18.55;;;10.43;;
48554;SDS011;34336;48.270;16.716;2022-08-25T07:18:46;17.23;;;10.95;;
48554;SDS011;34336;48.270;16.716;2022-08-25T07:21:14;19.02;;;13.00;;
48554;SDS011;34336;48.270;16.716;2022-08-25T07:23:41;17.13;;;12.93;;
48554;SDS011;34336;48.270;16.716;2022-08-25T07:28:57;19.35;;;12.15;;
48554;SDS011;34336;48.270;16.716;2022-08-25T07:31:26;18.58;;;11.95;;
48554;SDS011;34336;48.270;16.716;2022-08-25T07:33:55;19.58;;;12.25;;
48554;SDS011;34336;48.270;16.716;2022-08-25T07:36:42;18.13;;;11.40;;
48554;SDS011;34336;48.270;16.716;2022-08-25T07:39:09;19.08;;;11.32;;
48554;SDS011;34336;48.270;16.716;2022-08-25T07:41:37;17.42;;;10.23;;
48554;SDS011;34336;48.270;16.716;2022-08-25T07:44:06;18.05;;;11.25;;
48554;SDS011;34336;48.270;16.716;2022-08-25T07:46:35;13.77;;;9.90;;
48554;SDS011;34336;48.270;16.716;2022-08-25T07:49:02;15.70;;;9.70;;
48554;SDS011;34336;48.270;16.716;2022-08-25T07:51:41;17.30;;;10.73;;
48554;SDS011;34336;48.270;16.716;2022-08-25T07:54:28;19.90;;;12.60;;
48554;SDS011;34336;48.270;16.716;2022-08-25T07:57:00;20.90;;;11.63;;
48554;SDS011;34336;48.270;16.716;2022-08-25T07:59:27;18.35;;;10.73;;
48554;SDS011;34336;48.270;16.716;2022-08-25T08:01:54;15.63;;;10.20;;
48554;SDS011;34336;48.270;16.716;2022-08-25T08:04:21;17.70;;;9.98;;
48554;SDS011;34336;48.270;16.716;2022-08-25T08:06:48;14.35;;;9.18;;
48554;SDS011;34336;48.270;16.716;2022-08-25T08:09:14;15.57;;;8.85;;
48554;SDS011;34336;48.270;16.716;2022-08-25T08:11:42;16.52;;;8.65;;
48554;SDS011;34336;48.270;16.716;2022-08-25T08:14:19;14.30;;;7.93;;
48554;SDS011;34336;48.270;16.716;2022-08-25T08:16:46;18.05;;;8.55;;
48554;SDS011;34336;48.270;16.716;2022-08-25T08:19:13;14.00;;;6.05;;
48554;SDS011;34336;48.270;16.716;2022-08-25T08:21:42;14.85;;;7.90;;
48554;SDS011;34336;48.270;16.716;2022-08-25T08:24:09;13.82;;;8.05;;
48554;SDS011;34336;48.270;16.716;2022-08-25T08:26:56;17.00;;;9.82;;
48554;SDS011;34336;48.270;16.716;2022-08-25T08:29:24;16.85;;;9.60;;
48554;SDS011;34336;48.270;16.716;2022-08-25T08:31:52;16.65;;;7.88;;
48554;SDS011;34336;48.270;16.716;2022-08-25T08:34:19;13.70;;;8.55;;
48554;SDS011;34336;48.270;16.716;2022-08-25T08:36:50;15.45;;;8.82;;
48554;SDS011;34336;48.270;16.716;2022-08-25T08:39:17;12.85;;;9.18;;
48554;SDS011;34336;48.270;16.716;2022-08-25T08:47:14;10.63;;;8.20;;
48554;SDS011;34336;48.270;16.716;2022-08-25T08:50:10;12.07;;;8.25;;
48554;SDS011;34336;48.270;16.716;2022-08-25T08:53:04;12.93;;;8.30;;
48554;SDS011;34336;48.270;16.716;2022-08-25T08:55:41;13.80;;;7.93;;
48554;SDS011;34336;48.270;16.716;2022-08-25T08:58:21;22.40;;;9.20;;
48554;SDS011;34336;48.270;16.716;2022-08-25T09:00:52;16.00;;;8.75;;
48554;SDS011;34336;48.270;16.716;2022-08-25T09:03:35;14.02;;;8.75;;
48554;SDS011;34336;48.270;16.716;2022-08-25T09:06:06;14.98;;;9.45;;
48554;SDS011;34336;48.270;16.716;2022-08-25T09:08:37;16.33;;;8.38;;
48554;SDS011;34336;48.270;16.716;2022-08-25T09:11:12;46.40;;;13.02;;
48554;SDS011;34336;48.270;16.716;2022-08-25T09:14:15;18.52;;;9.90;;
48554;SDS011;34336;48.270;16.716;2022-08-25T09:17:00;14.93;;;8.55;;
48554;SDS011;34336;48.270;16.716;2022-08-25T09:25:14;22.42;;;9.77;;
48554;SDS011;34336;48.270;16.716;2022-08-25T09:31:00;15.82;;;8.25;;
48554;SDS011;34336;48.270;16.716;2022-08-25T09:33:29;18.20;;;9.30;;
48554;SDS011;34336;48.270;16.716;2022-08-25T09:36:01;18.75;;;8.95;;
48554;SDS011;34336;48.270;16.716;2022-08-25T09:38:31;17.87;;;9.23;;
48554;SDS011;34336;48.270;16.716;2022-08-25T09:40:59;43.88;;;13.07;;
48554;SDS011;34336;48.270;16.716;2022-08-25T09:43:42;20.42;;;9.60;;
48554;SDS011;34336;48.270;16.716;2022-08-25T09:46:24;15.93;;;9.48;;
48554;SDS011;34336;48.270;16.716;2022-08-25T09:48:55;18.27;;;9.55;;
48554;SDS011;34336;48.270;16.716;2022-08-25T09:51:25;15.97;;;9.40;;
48554;SDS011;34336;48.270;16.716;2022-08-25T09:59:28;15.43;;;8.75;;
48554;SDS011;34336;48.270;16.716;2022-08-25T10:04:30;11.40;;;8.25;;
48554;SDS011;34336;48.270;16.716;2022-08-25T10:07:18;12.68;;;7.78;;
48554;SDS011;34336;48.270;16.716;2022-08-25T10:09:58;11.65;;;8.23;;
48554;SDS011;34336;48.270;16.716;2022-08-25T10:12:32;13.68;;;8.43;;
48554;SDS011;34336;48.270;16.716;2022-08-25T10:17:54;12.23;;;8.20;;
48554;SDS011;34336;48.270;16.716;2022-08-25T10:20:24;12.00;;;8.27;;
48554;SDS011;34336;48.270;16.716;2022-08-25T10:23:08;13.80;;;7.80;;
48554;SDS011;34336;48.270;16.716;2022-08-25T10:25:38;12.50;;;8.15;;
48554;SDS011;34336;48.270;16.716;2022-08-25T10:28:28;11.98;;;8.05;;
48554;SDS011;34336;48.270;16.716;2022-08-25T10:31:09;9.90;;;6.93;;
48554;SDS011;34336;48.270;16.716;2022-08-25T10:36:35;10.50;;;7.57;;
48554;SDS011;34336;48.270;16.716;2022-08-25T10:39:18;9.63;;;7.40;;
48554;SDS011;34336;48.270;16.716;2022-08-25T10:45:12;12.27;;;8.30;;
48554;SDS011;34336;48.270;16.716;2022-08-25T10:50:49;13.85;;;8.30;;
48554;SDS011;34336;48.270;16.716;2022-08-25T10:53:56;13.90;;;7.78;;
48554;SDS011;34336;48.270;16.716;2022-08-25T10:56:48;13.45;;;8.32;;
48554;SDS011;34336;48.270;16.716;2022-08-25T11:05:07;14.73;;;7.00;;
48554;SDS011;34336;48.270;16.716;2022-08-25T11:07:38;9.68;;;6.80;;
48554;SDS011;34336;48.270;16.716;2022-08-25T11:10:12;11.57;;;7.63;;
48554;SDS011;34336;48.270;16.716;2022-08-25T11:12:53;12.15;;;6.88;;
48554;SDS011;34336;48.270;16.716;2022-08-25T11:15:28;11.02;;;7.20;;
48554;SDS011;34336;48.270;16.716;2022-08-25T11:18:04;10.50;;;7.05;;
48554;SDS011;34336;48.270;16.716;2022-08-25T11:23:40;10.25;;;6.40;;
48554;SDS011;34336;48.270;16.716;2022-08-25T11:26:16;11.23;;;7.20;;
48554;SDS011;34336;48.270;16.716;2022-08-25T11:29:11;9.80;;;6.90;;
48554;SDS011;34336;48.270;16.716;2022-08-25T11:31:50;11.05;;;6.57;;
48554;SDS011;34336;48.270;16.716;2022-08-25T11:34:19;11.32;;;7.13;;
48554;SDS011;34336;48.270;16.716;2022-08-25T11:36:49;8.27;;;6.43;;
48554;SDS011;34336;48.270;16.716;2022-08-25T11:39:33;8.30;;;6.72;;
48554;SDS011;34336;48.270;16.716;2022-08-25T11:50:31;10.20;;;6.95;;
48554;SDS011;34336;48.270;16.716;2022-08-25T12:00:51;11.30;;;6.43;;
48554;SDS011;34336;48.270;16.716;2022-08-25T12:12:26;10.52;;;6.35;;
48554;SDS011;34336;48.270;16.716;2022-08-25T12:19:59;9.45;;;6.43;;
48554;SDS011;34336;48.270;16.716;2022-08-25T12:38:36;10.07;;;6.55;;
48554;SDS011;34336;48.270;16.716;2022-08-25T12:41:23;12.35;;;7.30;;
48554;SDS011;34336;48.270;16.716;2022-08-25T12:44:10;12.25;;;7.15;;
48554;SDS011;34336;48.270;16.716;2022-08-25T12:47:24;13.20;;;8.10;;
48554;SDS011;34336;48.270;16.716;2022-08-25T12:52:54;11.38;;;7.25;;
48554;SDS011;34336;48.270;16.716;2022-08-25T12:55:33;9.88;;;5.50;;
48554;SDS011;34336;48.270;16.716;2022-08-25T12:58:04;11.98;;;6.95;;
48554;SDS011;34336;48.270;16.716;2022-08-25T13:00:44;10.32;;;7.18;;
48554;SDS011;34336;48.270;16.716;2022-08-25T13:08:59;12.68;;;7.57;;
48554;SDS011;34336;48.270;16.716;2022-08-25T13:11:54;10.95;;;7.78;;
48554;SDS011;34336;48.270;16.716;2022-08-25T13:14:36;11.15;;;7.70;;
48554;SDS011;34336;48.270;16.716;2022-08-25T13:17:05;9.25;;;7.32;;
48554;SDS011;34336;48.270;16.716;2022-08-25T13:19:35;12.63;;;8.13;;
48554;SDS011;34336;48.270;16.716;2022-08-25T13:22:09;9.25;;;6.88;;
48554;SDS011;34336;48.270;16.716;2022-08-25T13:24:42;10.05;;;7.00;;
48554;SDS011;34336;48.270;16.716;2022-08-25T13:27:25;9.75;;;7.35;;
48554;SDS011;34336;48.270;16.716;2022-08-25T13:29:54;10.05;;;6.88;;
48554;SDS011;34336;48.270;16.716;2022-08-25T13:32:25;13.40;;;6.93;;
48554;SDS011;34336;48.270;16.716;2022-08-25T13:35:18;11.10;;;7.15;;
48554;SDS011;34336;48.270;16.716;2022-08-25T13:37:53;9.02;;;7.00;;
48554;SDS011;34336;48.270;16.716;2022-08-25T13:43:02;9.50;;;6.03;;
48554;SDS011;34336;48.270;16.716;2022-08-25T13:45:32;9.52;;;6.90;;
48554;SDS011;34336;48.270;16.716;2022-08-25T13:48:07;9.70;;;6.15;;
48554;SDS011;34336;48.270;16.716;2022-08-25T13:50:49;8.85;;;6.32;;
48554;SDS011;34336;48.270;16.716;2022-08-25T13:53:22;11.95;;;6.90;;
48554;SDS011;34336;48.270;16.716;2022-08-25T13:55:52;10.32;;;6.93;;
48554;SDS011;34336;48.270;16.716;2022-08-25T13:58:33;10.30;;;6.57;;
48554;SDS011;34336;48.270;16.716;2022-08-25T14:06:46;12.45;;;7.53;;
48554;SDS011;34336;48.270;16.716;2022-08-25T14:09:14;9.10;;;6.80;;
48554;SDS011;34336;48.270;16.716;2022-08-25T14:11:56;10.65;;;6.65;;
48554;SDS011;34336;48.270;16.716;2022-08-25T14:19:20;9.23;;;6.78;;
48554;SDS011;34336;48.270;16.716;2022-08-25T14:21:49;7.53;;;6.72;;
48554;SDS011;34336;48.270;16.716;2022-08-25T14:24:22;10.38;;;6.82;;
48554;SDS011;34336;48.270;16.716;2022-08-25T14:26:49;9.95;;;6.72;;
48554;SDS011;34336;48.270;16.716;2022-08-25T14:29:20;7.78;;;6.65;;
48554;SDS011;34336;48.270;16.716;2022-08-25T14:31:48;7.60;;;6.10;;
48554;SDS011;34336;48.270;16.716;2022-08-25T14:34:21;9.35;;;6.35;;
48554;SDS011;34336;48.270;16.716;2022-08-25T14:36:54;8.70;;;7.78;;
48554;SDS011;34336;48.270;16.716;2022-08-25T14:39:21;12.88;;;7.97;;
48554;SDS011;34336;48.270;16.716;2022-08-25T14:41:47;13.15;;;8.40;;
48554;SDS011;34336;48.270;16.716;2022-08-25T14:44:18;8.25;;;5.30;;
48554;SDS011;34336;48.270;16.716;2022-08-25T14:46:49;10.30;;;6.55;;
48554;SDS011;34336;48.270;16.716;2022-08-25T14:49:24;10.57;;;6.07;;
48554;SDS011;34336;48.270;16.716;2022-08-25T14:51:55;8.90;;;5.70;;
48554;SDS011;34336;48.270;16.716;2022-08-25T14:54:33;7.45;;;5.88;;
48554;SDS011;34336;48.270;16.716;2022-08-25T14:57:03;8.75;;;6.40;;
48554;SDS011;34336;48.270;16.716;2022-08-25T14:59:33;9.10;;;5.60;;
48554;SDS011;34336;48.270;16.716;2022-08-25T15:02:00;7.63;;;5.45;;
48554;SDS011;34336;48.270;16.716;2022-08-25T15:04:27;8.30;;;5.65;;
48554;SDS011;34336;48.270;16.716;2022-08-25T15:06:58;7.20;;;5.38;;
48554;SDS011;34336;48.270;16.716;2022-08-25T15:09:28;8.30;;;5.30;;
48554;SDS011;34336;48.270;16.716;2022-08-25T15:11:59;7.80;;;5.75;;
48554;SDS011;34336;48.270;16.716;2022-08-25T15:14:25;9.38;;;6.05;;
48554;SDS011;34336;48.270;16.716;2022-08-25T15:16:58;33.75;;;30.08;;
48554;SDS011;34336;48.270;16.716;2022-08-25T15:19:25;16.02;;;14.32;;
48554;SDS011;34336;48.270;16.716;2022-08-25T15:21:52;9.43;;;5.63;;
48554;SDS011;34336;48.270;16.716;2022-08-25T15:24:24;8.20;;;5.63;;
48554;SDS011;34336;48.270;16.716;2022-08-25T15:26:52;7.65;;;5.43;;
48554;SDS011;34336;48.270;16.716;2022-08-25T15:29:24;8.05;;;5.45;;
48554;SDS011;34336;48.270;16.716;2022-08-25T15:31:55;6.65;;;4.97;;
48554;SDS011;34336;48.270;16.716;2022-08-25T15:34:24;8.73;;;5.70;;
48554;SDS011;34336;48.270;16.716;2022-08-25T15:36:51;6.40;;;5.22;;
48554;SDS011;34336;48.270;16.716;2022-08-25T15:39:18;8.07;;;5.13;;
48554;SDS011;34336;48.270;16.716;2022-08-25T15:41:46;7.50;;;5.07;;
48554;SDS011;34336;48.270;16.716;2022-08-25T15:44:19;8.13;;;5.55;;
48554;SDS011;34336;48.270;16.716;2022-08-25T15:46:51;7.88;;;5.05;;
48554;SDS011;34336;48.270;16.716;2022-08-25T15:49:21;16.15;;;14.50;;
48554;SDS011;34336;48.270;16.716;2022-08-25T15:51:53;20.42;;;15.35;;
48554;SDS011;34336;48.270;16.716;2022-08-25T15:54:23;13.02;;;10.60;;
48554;SDS011;34336;48.270;16.716;2022-08-25T15:56:52;8.45;;;5.82;;
48554;SDS011;34336;48.270;16.716;2022-08-25T15:59:22;10.75;;;5.80;;
48554;SDS011;34336;48.270;16.716;2022-08-25T16:01:50;10.05;;;5.43;;
48554;SDS011;34336;48.270;16.716;2022-08-25T16:04:23;7.03;;;5.22;;
48554;SDS011;34336;48.270;16.716;2022-08-25T16:06:52;8.80;;;5.05;;
48554;SDS011;34336;48.270;16.716;2022-08-25T16:09:21;7.82;;;5.55;;
48554;SDS011;34336;48.270;16.716;2022-08-25T16:11:49;6.90;;;5.50;;
48554;SDS011;34336;48.270;16.716;2022-08-25T16:14:24;10.25;;;4.90;;
48554;SDS011;34336;48.270;16.716;2022-08-25T16:16:53;7.05;;;4.95;;
48554;SDS011;34336;48.270;16.716;2022-08-25T16:19:26;6.82;;;5.10;;
48554;SDS011;34336;48.270;16.716;2022-08-25T16:21:54;6.40;;;5.00;;
48554;SDS011;34336;48.270;16.716;2022-08-25T16:24:21;9.40;;;5.30;;
48554;SDS011;34336;48.270;16.716;2022-08-25T16:26:48;8.40;;;4.50;;
48554;SDS011;34336;48.270;16.716;2022-08-25T16:29:17;9.63;;;5.68;;
48554;SDS011;34336;48.270;16.716;2022-08-25T16:31:45;7.15;;;5.78;;
48554;SDS011;34336;48.270;16.716;2022-08-25T16:34:20;9.00;;;5.25;;
48554;SDS011;34336;48.270;16.716;2022-08-25T16:36:50;8.02;;;5.38;;
48554;SDS011;34336;48.270;16.716;2022-08-25T16:39:18;10.23;;;5.43;;
48554;SDS011;34336;48.270;16.716;2022-08-25T16:41:46;6.07;;;4.93;;
48554;SDS011;34336;48.270;16.716;2022-08-25T16:44:13;7.82;;;5.07;;